createdAt,value
2018-12-07T00:04:41.447Z,86.11
2018-12-07T00:09:44.126Z,85.83
2018-12-07T00:14:46.672Z,85.98
2018-12-07T00:19:49.292Z,86.31
2018-12-07T00:24:51.857Z,86.16
2018-12-07T00:29:54.534Z,86.48
2018-12-07T00:34:57.088Z,86.02
2018-12-07T00:39:59.786Z,86.54
2018-12-07T00:45:02.349Z,85.87
2018-12-07T00:50:05.031Z,85.77
2018-12-07T00:55:15.559Z,86.43
2018-12-07T01:00:18.113Z,86.15
2018-12-07T01:05:20.741Z,86.29
2018-12-07T01:10:23.382Z,86.31
2018-12-07T01:15:26.029Z,86.10
2018-12-07T01:20:28.690Z,86.42
2018-12-07T01:25:31.300Z,86.03
2018-12-07T01:30:34.212Z,86.33
2018-12-07T01:35:36.872Z,86.31
2018-12-07T01:40:39.494Z,85.78
2018-12-07T01:45:42.775Z,85.42
2018-12-07T01:50:45.396Z,85.57
2018-12-07T01:55:48.734Z,85.67
2018-12-07T02:00:51.315Z,85.93
2018-12-07T02:05:54.200Z,86.03
2018-12-07T02:10:56.820Z,85.83
2018-12-07T02:15:59.416Z,85.48
2018-12-07T02:21:02.048Z,85.57
2018-12-07T02:26:04.776Z,85.63
2018-12-07T02:31:07.373Z,85.13
2018-12-07T02:36:09.908Z,85.54
2018-12-07T02:41:12.551Z,86.17
2018-12-07T02:46:15.169Z,85.17
2018-12-07T02:51:17.873Z,85.52
2018-12-07T02:56:20.434Z,85.65
2018-12-07T03:01:23.006Z,85.30
2018-12-07T03:06:25.686Z,85.27
2018-12-07T03:11:28.268Z,85.59
2018-12-07T03:16:30.903Z,85.78
2018-12-07T03:21:33.461Z,85.73
2018-12-07T03:26:36.006Z,85.36
2018-12-07T03:31:38.583Z,85.50
2018-12-07T03:36:41.156Z,86.08
2018-12-07T03:41:44.182Z,85.87
2018-12-07T03:46:46.869Z,85.98
2018-12-07T03:51:49.455Z,86.16
2018-12-07T03:56:52.028Z,85.94
2018-12-07T04:01:54.634Z,87.32
2018-12-07T04:06:57.267Z,86.61
2018-12-07T04:11:59.855Z,86.63
2018-12-07T04:17:02.508Z,86.84
2018-12-07T04:22:05.165Z,86.25
2018-12-07T04:27:07.797Z,86.82
2018-12-07T04:32:10.477Z,86.38
2018-12-07T04:37:13.105Z,86.65
2018-12-07T04:42:15.686Z,87.01
2018-12-07T04:47:18.291Z,86.91
2018-12-07T04:52:21.026Z,87.26
2018-12-07T04:57:24.494Z,86.68
2018-12-07T05:02:27.028Z,87.12
2018-12-07T05:07:29.568Z,86.91
2018-12-07T05:12:32.113Z,87.33
2018-12-07T05:17:34.740Z,87.10
2018-12-07T05:22:37.350Z,87.40
2018-12-07T05:27:40.023Z,86.97
2018-12-07T05:32:42.686Z,86.99
2018-12-07T05:37:45.841Z,87.19
2018-12-07T05:42:48.513Z,87.23
2018-12-07T05:47:51.094Z,87.04
2018-12-07T05:52:53.671Z,87.25
2018-12-07T05:57:56.255Z,87.53
2018-12-07T06:02:58.857Z,87.31
2018-12-07T06:08:01.433Z,87.76
2018-12-07T06:13:04.039Z,88.68
2018-12-07T06:18:06.647Z,88.46
2018-12-07T06:23:09.194Z,89.64
2018-12-07T06:28:12.008Z,90.25
2018-12-07T06:33:14.667Z,91.37
2018-12-07T06:38:17.920Z,91.55
2018-12-07T06:43:20.513Z,91.52
2018-12-07T06:48:23.698Z,92.07
2018-12-07T06:53:26.317Z,94.18
2018-12-07T06:58:28.869Z,93.98
2018-12-07T07:03:31.397Z,94.08
2018-12-07T07:08:34.603Z,94.57
2018-12-07T07:13:37.219Z,95.03
2018-12-07T07:18:40.451Z,95.29
2018-12-07T07:23:42.994Z,94.80
2018-12-07T07:28:45.787Z,95.70
2018-12-07T07:33:48.367Z,96.33
2018-12-07T07:38:51.139Z,95.88
2018-12-07T07:43:53.681Z,95.82
2018-12-07T07:48:56.519Z,96.20
2018-12-07T07:53:59.073Z,96.27
2018-12-07T07:59:01.778Z,96.33
2018-12-07T08:04:04.406Z,96.08
2018-12-07T08:09:06.974Z,96.11
2018-12-07T08:14:09.524Z,95.64
2018-12-07T08:19:12.837Z,95.87
2018-12-07T08:24:15.560Z,96.58
2018-12-07T08:29:18.230Z,96.30
2018-12-07T08:34:20.872Z,96.44
2018-12-07T08:39:23.493Z,96.64
2018-12-07T08:44:26.143Z,95.82
2018-12-07T08:49:34.587Z,96.68
2018-12-07T08:54:37.157Z,96.37
2018-12-07T08:59:40.366Z,96.36
2018-12-07T09:04:43.166Z,96.01
2018-12-07T09:09:46.031Z,96.00
2018-12-07T09:14:48.682Z,96.66
2018-12-07T09:19:51.326Z,96.41
2018-12-07T09:24:53.943Z,96.55
2018-12-07T09:29:56.528Z,96.16
2018-12-07T09:34:59.124Z,96.30
2018-12-07T09:40:01.784Z,96.39
2018-12-07T09:45:05.766Z,97.01
2018-12-07T09:50:08.380Z,97.02
2018-12-07T09:55:11.030Z,96.97
2018-12-07T10:00:14.313Z,96.86
2018-12-07T10:05:16.895Z,96.52
2018-12-07T10:10:19.598Z,97.36
2018-12-07T10:15:22.243Z,97.47
2018-12-07T10:20:25.501Z,97.66
2018-12-07T10:25:28.185Z,97.51
2018-12-07T10:30:30.842Z,97.83
2018-12-07T10:35:34.341Z,97.71
2018-12-07T10:40:37.017Z,97.78
2018-12-07T10:45:39.621Z,98.35
2018-12-07T10:50:42.177Z,97.97
2018-12-07T10:55:44.751Z,98.15
2018-12-07T11:00:53.110Z,97.44
2018-12-07T11:11:40.318Z,97.41
2018-12-07T11:16:48.408Z,97.94
2018-12-07T11:21:56.673Z,97.74
2018-12-07T11:27:05.562Z,97.76
2018-12-07T11:32:13.701Z,97.69
2018-12-07T11:37:16.258Z,98.47
2018-12-07T11:42:18.877Z,98.42
2018-12-07T11:47:22.005Z,98.57
2018-12-07T11:52:24.548Z,98.80
2018-12-07T11:57:27.099Z,98.59
2018-12-07T12:02:29.679Z,98.71
2018-12-07T12:07:32.886Z,98.44
2018-12-07T12:12:35.609Z,98.66
2018-12-07T12:17:38.246Z,98.28
2018-12-07T12:22:40.857Z,98.13
2018-12-07T12:27:43.670Z,98.54
2018-12-07T12:32:46.996Z,98.18
2018-12-07T12:37:49.556Z,98.50
2018-12-07T12:42:52.324Z,98.05
2018-12-07T12:47:55.008Z,98.82
2018-12-07T12:52:57.594Z,98.39
2018-12-07T12:58:00.201Z,98.91
2018-12-07T13:03:02.821Z,98.25
2018-12-07T13:08:05.369Z,98.58
2018-12-07T13:13:07.958Z,99.02
2018-12-07T13:18:10.504Z,99.39
2018-12-07T13:23:13.102Z,99.08
2018-12-07T13:28:15.683Z,99.18
2018-12-07T13:33:18.273Z,99.39
2018-12-07T13:38:21.452Z,99.02
2018-12-07T13:43:24.352Z,99.64
2018-12-07T13:48:26.936Z,99.50
2018-12-07T13:53:29.708Z,99.39
2018-12-07T13:58:32.604Z,99.21
2018-12-07T14:03:35.398Z,99.36
2018-12-07T14:08:38.121Z,99.57
2018-12-07T14:13:41.209Z,98.81
2018-12-07T14:18:44.632Z,98.54
2018-12-07T14:23:47.384Z,98.99
2018-12-07T14:28:50.036Z,98.49
2018-12-07T14:33:53.434Z,97.27
2018-12-07T14:38:57.803Z,97.84
2018-12-07T14:44:00.791Z,97.56
2018-12-07T14:49:04.088Z,98.47
2018-12-07T14:54:06.837Z,97.99
2018-12-07T14:59:09.498Z,96.92
2018-12-07T15:04:13.153Z,96.23
2018-12-07T15:09:15.916Z,96.01
2018-12-07T15:14:18.548Z,95.90
2018-12-07T15:19:21.570Z,96.63
2018-12-07T15:24:25.064Z,96.55
2018-12-07T15:29:27.992Z,95.93
2018-12-07T15:34:30.863Z,95.78
2018-12-07T15:39:34.280Z,96.54
2018-12-07T15:44:37.154Z,95.96
2018-12-07T15:49:41.938Z,96.07
2018-12-07T15:54:44.740Z,96.60
2018-12-07T15:59:47.521Z,96.46
2018-12-07T16:04:50.468Z,95.92
2018-12-07T16:09:53.818Z,97.25
2018-12-07T16:14:56.531Z,96.67
2018-12-07T16:19:59.153Z,96.35
2018-12-07T16:25:02.033Z,95.64
2018-12-07T16:30:06.359Z,95.06
2018-12-07T16:35:09.032Z,96.36
2018-12-07T16:40:11.870Z,95.27
2018-12-07T16:45:14.805Z,95.47
2018-12-07T16:50:17.562Z,95.56
2018-12-07T16:55:21.265Z,95.13
2018-12-07T17:00:23.972Z,95.45
2018-12-07T17:05:27.460Z,96.49
2018-12-07T17:10:30.247Z,95.41
2018-12-07T17:15:33.610Z,96.34
2018-12-07T17:20:36.977Z,96.50
2018-12-07T17:25:40.133Z,96.42
2018-12-07T17:30:42.828Z,96.02
2018-12-07T17:35:45.772Z,97.40
2018-12-07T17:40:48.882Z,96.66
2018-12-07T17:45:51.916Z,97.47
2018-12-07T17:50:54.666Z,96.99
2018-12-07T17:55:57.386Z,97.16
2018-12-07T18:01:00.247Z,98.05
2018-12-07T18:06:02.865Z,97.83
2018-12-07T18:11:05.537Z,98.20
2018-12-07T18:16:08.181Z,97.89
2018-12-07T18:21:11.491Z,98.21
2018-12-07T18:26:14.114Z,97.69
2018-12-07T18:31:16.967Z,95.98
2018-12-07T18:36:20.050Z,97.85
2018-12-07T18:41:22.953Z,97.64
2018-12-07T18:46:25.786Z,96.94
2018-12-07T18:51:28.546Z,96.44
2018-12-07T18:56:31.311Z,96.10
2018-12-07T19:01:34.696Z,97.43
2018-12-07T19:06:37.893Z,97.55
2018-12-07T19:11:40.963Z,94.48
2018-12-07T19:16:44.051Z,95.19
2018-12-07T19:21:46.888Z,94.61
2018-12-07T19:26:50.482Z,94.39
2018-12-07T19:31:53.363Z,92.97
2018-12-07T19:36:56.276Z,93.50
2018-12-07T19:41:59.051Z,95.03
2018-12-07T19:47:02.126Z,91.46
2018-12-07T19:52:05.242Z,92.67
2018-12-07T19:57:08.137Z,90.94
2018-12-07T20:02:11.088Z,93.48
2018-12-07T20:07:14.254Z,91.13
2018-12-07T20:12:17.188Z,91.39
2018-12-07T20:17:19.919Z,89.52
2018-12-07T20:22:22.593Z,89.91
2018-12-07T20:27:25.260Z,86.42
2018-12-07T20:32:27.888Z,82.77
2018-12-07T20:37:30.771Z,78.80
2018-12-07T20:42:33.726Z,81.76
2018-12-07T20:47:36.554Z,80.43
2018-12-07T20:52:39.268Z,80.51
2018-12-07T20:57:42.006Z,80.26
2018-12-07T21:02:45.322Z,79.46
2018-12-07T21:07:51.973Z,77.44
2018-12-07T21:18:38.658Z,77.28
2018-12-07T21:23:41.397Z,77.89
2018-12-07T21:28:44.202Z,78.14
2018-12-07T21:33:49.872Z,77.96
2018-12-07T21:38:52.799Z,75.83
2018-12-07T21:43:55.744Z,76.37
2018-12-07T21:48:58.639Z,72.78
2018-12-07T21:54:01.582Z,73.61
2018-12-07T21:59:04.467Z,73.40
2018-12-07T22:04:07.390Z,72.72
2018-12-07T22:09:10.281Z,71.01
2018-12-07T22:14:13.296Z,72.65
2018-12-07T22:19:15.982Z,71.51
2018-12-07T22:24:18.736Z,70.89
2018-12-07T22:29:21.506Z,71.86
2018-12-07T22:34:24.907Z,71.56
2018-12-07T22:39:27.792Z,71.41
2018-12-07T22:44:30.515Z,70.29
2018-12-07T22:49:33.172Z,70.40
2018-12-07T22:54:35.805Z,70.31
2018-12-07T22:59:38.357Z,69.36
2018-12-07T23:04:40.921Z,70.35
2018-12-07T23:09:43.496Z,70.52
2018-12-07T23:14:46.086Z,73.28
2018-12-07T23:19:48.666Z,72.85
2018-12-07T23:24:51.359Z,72.48
2018-12-07T23:29:54.030Z,71.85
2018-12-07T23:34:56.601Z,71.70
2018-12-07T23:39:59.794Z,70.93
2018-12-07T23:45:02.501Z,70.43
2018-12-07T23:50:06.679Z,69.72
2018-12-07T23:55:09.308Z,69.45
